Latest Weather Observations for Fortescue Dave Forrest

IDW60801

Issued at 7:33 pm WST Saturday 3 December 2016 (issued every 30 minutes, with the page automatically refreshed every 10 minutes)

About weather observations | Map of weather stations | Latest weather observations for WA | Other Formats
Station Details ID: 505056 Name: FORTESCUE DAVE FORREST Lat: -22.29 Lon: 119.43 Height: 474.6 m
Data from the previous 72 hours. | See also: Recent months for locations in Western Australia
Date/Time
WST
Temp
°C
App
Temp
°C
Dew
Point
°C
Rel
Hum
%
Delta-T
°C
Wind Press
QNH
hPa
Press
MSL
hPa
Rain since
9am
mm
Dir  Spd
km/h
Gust
km/h
Spd
kts
Gust
kts
03/07:30pm 33.8 28.2 13.3 29 12.7 NNW 35 52 19 28 1007.6 1003.6 0.0
03/07:07pm 34.3 28.3 13.2 28 13.0 NNW 37 54 20 29 1007.2 1003.2 0.0
03/07:00pm 34.5 29.3 13.3 27 13.1 NW 33 44 18 24 1007.1 1003.1 0.0
03/06:30pm 35.3 29.2 12.9 26 13.8 NNW 37 52 20 28 1006.5 1002.5 0.0
03/06:00pm 36.1 30.7 12.3 24 14.6 NW 32 43 17 23 1006.2 1002.2 0.0
03/05:30pm 37.4 31.8 11.4 21 15.8 NW 32 41 17 22 1005.7 1001.7 0.0
03/05:00pm 38.1 33.0 10.5 19 16.6 NW 28 41 15 22 1005.4 1001.4 0.0
03/04:55pm 38.3 33.2 10.6 19 16.7 NW 28 46 15 25 1005.4 1001.4 0.0
03/04:30pm 38.0 32.6 9.6 18 16.9 NW 28 44 15 24 1005.4 1001.4 0.0
03/04:00pm 38.4 32.5 9.0 17 17.4 NNW 30 43 16 23 1005.5 1001.5 0.0
03/03:30pm 38.4 33.6 9.0 17 17.3 NW 24 43 13 23 1005.7 1001.7 0.0
03/03:17pm 39.4 33.8 8.9 16 18.0 NW 28 46 15 25 1005.6 1001.6 0.0
03/03:00pm 39.6 33.8 8.1 15 18.5 WNW 28 41 15 22 1005.9 1001.9 0.0
03/02:30pm 39.0 33.5 7.7 15 18.1 NW 26 43 14 23 1006.1 1002.1 0.0
03/02:00pm 39.1 35.0 8.7 16 17.9 NW 20 43 11 23 1006.4 1002.4 0.0
03/01:30pm 39.1 33.6 7.7 15 18.2 WNW 26 44 14 24 1006.8 1002.8 0.0
03/01:00pm 37.8 33.9 8.6 17 17.1 NNW 19 32 10 17 1007.1 1003.1 0.0
03/12:30pm 38.3 34.5 9.0 17 17.3 NW 19 33 10 18 1007.3 1003.3 0.0
03/12:00pm 38.3 34.3 8.1 16 17.6 NW 19 41 10 22 1007.6 1003.6 0.0
03/11:30am 37.8 33.5 7.7 16 17.4 W 20 37 11 20 1007.9 1003.9 0.0
03/11:00am 37.7 33.9 7.6 16 17.4 WNW 17 37 9 20 1008.3 1004.3 0.0
03/10:30am 36.7 32.4 7.7 17 16.6 WNW 20 26 11 14 1008.6 1004.7 0.0
03/10:00am 35.0 31.3 7.9 19 15.5 WNW 17 30 9 16 1009.1 1005.1 0.0
03/09:30am 33.7 31.5 10.9 25 13.6 NW 13 24 7 13 1009.1 1005.1 0.0
03/09:00am 33.6 30.8 11.5 26 13.3 WNW 17 26 9 14 1009.3 1005.3 0.0
03/08:30am 31.8 29.2 12.1 30 11.8 W 17 24 9 13 1009.1 1005.1 0.0
03/08:00am 30.5 28.0 12.4 33 10.9 WNW 17 22 9 12 1008.9 1005.0 0.0
03/07:30am 29.2 27.5 12.6 36 9.9 NW 13 19 7 10 1008.8 1004.9 0.0
03/07:00am 27.7 25.4 14.0 43 8.4 NNW 19 24 10 13 1008.6 1004.7 0.0
03/06:30am 26.5 24.1 14.3 47 7.4 NNW 20 32 11 17 1008.4 1004.4 0.0
03/06:00am 25.5 24.0 15.2 53 6.3 N 17 26 9 14 1008.1 1004.1 0.0
03/05:30am 25.1 23.2 15.1 53 6.1 NNW 19 26 10 14 1007.8 1003.8 0.0
03/05:00am 25.3 23.4 14.1 50 6.8 NNW 17 24 9 13 1007.7 1003.7 0.0
03/04:30am 25.3 24.9 12.9 46 7.3 NNW 7 11 4 6 1007.6 1003.6 0.0
03/04:00am 26.0 24.4 12.8 44 7.9 N 13 17 7 9 1007.3 1003.3 0.0
03/03:30am 26.2 25.0 11.5 40 8.5 N 9 15 5 8 1007.6 1003.6 0.0
03/03:00am 26.9 25.3 11.4 38 9.0 NNW 11 15 6 8 1007.4 1003.4 0.0
03/02:30am 27.6 25.8 10.8 35 9.7 N 11 17 6 9 1007.4 1003.4 0.0
03/02:00am 28.1 25.8 10.3 33 10.3 NNE 13 24 7 13 1007.5 1003.5 0.0
03/01:30am 28.7 25.3 11.3 34 10.2 N 20 30 11 16 1007.6 1003.6 0.0
03/01:00am 29.5 26.3 12.0 34 10.4 N 20 30 11 16 1007.6 1003.6 0.0
03/12:30am 30.0 27.6 11.5 32 10.9 NNW 15 20 8 11 1007.5 1003.5 0.0
03/12:00am 30.5 27.2 11.5 31 11.3 NNW 20 28 11 15 1007.6 1003.6 0.0
 
Date/Time
WST
Temp
°C
App
Temp
°C
Dew
Point
°C
Rel
Hum
%
Delta-T
°C
Wind Press
QNH
hPa
Press
MSL
hPa
Rain since
9am
mm
Dir  Spd
km/h
Gust
km/h
Spd
kts
Gust
kts
02/11:30pm 30.9 27.4 10.8 29 11.8 NNW 20 28 11 15 1007.7 1003.7 0.0
02/11:00pm 31.7 28.3 9.3 25 12.9 N 17 22 9 12 1007.8 1003.8 0.0
02/10:30pm 32.3 29.0 7.9 22 13.8 NNW 15 22 8 12 1007.8 1003.8 0.0
02/10:00pm 32.6 29.3 8.1 22 13.9 N 15 22 8 12 1007.7 1003.7 0.0
02/09:30pm 33.3 29.7 10.0 24 13.6 NNE 19 28 10 15 1008.0 1004.0 0.0
02/09:00pm 34.0 28.8 7.1 19 15.1 NNE 24 32 13 17 1007.6 1003.6 0.0
02/08:30pm 33.7 30.0 6.1 18 15.2 N 15 20 8 11 1007.4 1003.4 0.0
02/08:00pm 34.4 29.8 6.7 18 15.5 W 20 32 11 17 1007.0 1003.0 0.0
02/07:30pm 34.4 27.7 8.2 20 15.0 W 33 52 18 28 1006.6 1002.7 0.0
02/07:10pm 34.7 28.3 9.2 21 14.8 W 33 52 18 28 1006.2 1002.2 0.0
02/07:00pm 35.0 28.1 8.7 20 15.2 W 35 52 19 28 1006.1 1002.1 0.0
02/06:48pm 36.2 29.5 7.3 17 16.4 W 32 61 17 33 1005.7 1001.7 0.0
02/06:46pm 36.6 30.5 6.7 16 16.9 W 28 61 15 33 1005.5 1001.5 0.0
02/06:41pm 37.2 31.7 4.2 13 18.0 W 22 32 12 17 1005.4 1001.4 0.0
02/06:30pm 37.4 33.3 6.4 15 17.5 WNW 17 26 9 14 1005.1 1001.1 0.0
02/06:23pm 37.4 33.2 7.3 16 17.2 WNW 19 26 10 14 1005.0 1001.0 0.0
02/06:00pm 37.8 31.9 7.7 16 17.4 WNW 28 43 15 23 1004.6 1000.5 0.0
02/05:30pm 39.2 33.4 7.8 15 18.2 NW 28 43 15 23 1004.0 1000.0 0.0
02/05:00pm 39.5 33.3 6.0 13 19.0 NW 28 35 15 19 1003.9 999.9 0.0
02/04:30pm 40.6 35.4 5.7 12 19.8 NW 22 35 12 19 1003.8 999.8 0.0
02/04:00pm 40.4 34.6 4.3 11 20.1 WNW 24 33 13 18 1004.0 1000.0 0.0
02/03:30pm 41.2 38.0 4.9 11 20.4 WNW 11 28 6 15 1004.1 1000.1 0.0
02/03:00pm 40.7 35.7 4.5 11 20.2 NW 20 28 11 15 1004.7 1000.6 0.0
02/02:30pm 41.7 37.5 3.9 10 21.0 NW 15 33 8 18 1005.0 1001.0 0.0
02/02:00pm 41.2 35.7 2.0 9 21.2 WNW 20 33 11 18 1005.5 1001.5 0.0
02/01:30pm 40.7 36.1 1.7 9 20.9 NNW 15 30 8 16 1005.8 1001.8 0.0
02/01:00pm 40.4 35.4 1.4 9 20.8 NNW 17 30 9 16 1006.2 1002.2 0.0
02/12:30pm 40.0 36.1 1.1 9 20.5 W 11 19 6 10 1006.4 1002.4 0.0
02/12:00pm 39.8 34.7 1.0 9 20.5 WSW 17 24 9 13 1006.8 1002.8 0.0
02/11:30am 40.6 37.5 1.6 9 20.8 SSW 7 15 4 8 1007.2 1003.2 0.0
02/11:00am 39.7 36.3 -0.7 8 20.8 ESE 7 13 4 7 1007.6 1003.6 0.0
02/10:30am 39.1 35.3 -1.1 8 20.4 E 9 19 5 10 1007.9 1003.9 0.0
02/10:00am 39.6 35.2 -2.6 7 21.1 S 11 22 6 12 1008.0 1004.0 0.0
02/09:30am 37.6 33.4 -0.6 9 19.4 SSW 11 20 6 11 1008.1 1004.1 0.0
02/09:00am 36.7 33.0 0.1 10 18.7 S 9 17 5 9 1008.4 1004.4 0.0
02/08:30am 34.8 30.7 0.0 11 17.5 SSE 11 19 6 10 1008.5 1004.5 0.0
02/08:00am 34.7 30.8 1.1 12 17.3 S 11 19 6 10 1008.6 1004.7 0.0
02/07:30am 32.5 28.8 2.5 15 15.5 SW 11 15 6 8 1008.3 1004.3 0.0
02/07:00am 30.2 28.0 5.5 21 13.3 SW 6 11 3 6 1007.9 1003.9 0.0
02/06:30am 30.1 27.7 5.4 21 13.2 W 7 9 4 5 1007.8 1003.8 0.0
02/06:00am 27.8 25.7 6.0 25 11.7 N 6 7 3 4 1007.8 1003.8 0.0
02/05:30am 28.0 25.8 6.2 25 11.7 NNW 7 11 4 6 1007.6 1003.6 0.0
02/05:00am 29.2 27.5 6.0 23 12.5 WNW 4 7 2 4 1007.1 1003.1 0.0
02/04:30am 30.1 27.6 6.7 23 12.8 WSW 9 13 5 7 1006.5 1002.5 0.0
02/04:00am 29.8 27.6 7.7 25 12.3 WSW 9 15 5 8 1006.2 1002.2 0.0
02/03:30am 27.7 25.3 8.6 30 10.7 NNW 11 15 6 8 1006.4 1002.4 0.0
02/03:00am 28.3 26.8 8.6 29 11.1 NW 6 9 3 5 1006.2 1002.2 0.0
02/02:30am 30.2 29.1 8.6 26 12.2 WNW 4 6 2 3 1006.0 1002.0 0.0
02/02:00am 30.1 28.6 9.1 27 12.0 WNW 7 13 4 7 1006.1 1002.1 0.0
02/01:30am 30.9 29.4 9.2 26 12.4 WNW 7 9 4 5 1005.9 1001.9 0.0
02/01:00am 30.9 29.3 8.6 25 12.7 NNW 7 11 4 6 1006.1 1002.1 0.0
02/12:30am 31.2 29.6 8.8 25 12.8 NNW 7 9 4 5 1006.4 1002.4 0.0
02/12:00am 32.0 30.3 8.3 23 13.5 NNW 7 11 4 6 1006.6 1002.7 0.0
 
Date/Time
WST
Temp
°C
App
Temp
°C
Dew
Point
°C
Rel
Hum
%
Delta-T
°C
Wind Press
QNH
hPa
Press
MSL
hPa
Rain since
9am
mm
Dir  Spd
km/h
Gust
km/h
Spd
kts
Gust
kts
01/11:30pm 32.5 29.0 8.7 23 13.6 NNW 17 26 9 14 1006.9 1002.9 0.0
01/11:00pm 32.8 28.8 8.3 22 14.0 N 19 26 10 14 1006.9 1002.9 0.0
01/10:30pm 33.9 28.8 7.8 20 14.8 NW 24 32 13 17 1007.1 1003.1 0.0
01/10:00pm 34.4 30.6 7.5 19 15.3 NW 17 22 9 12 1007.0 1003.0 0.0
01/09:30pm 32.5 30.3 5.1 18 14.8 NNE 6 9 3 5 1006.6 1002.7 0.0
01/09:00pm 32.9 30.9 4.6 17 15.2 E 4 4 2 2 1006.6 1002.7 0.0
01/08:30pm 33.3 31.4 5.0 17 15.3 N 4 7 2 4 1006.4 1002.4 0.0
01/08:00pm 34.2 32.3 4.8 16 16.0 NW 4 6 2 3 1006.2 1002.2 0.0
01/07:30pm 35.0 32.6 4.5 15 16.5 NW 6 6 3 3 1006.0 1002.0 0.0
01/07:00pm 36.3 33.8 4.6 14 17.4 NW 7 7 4 4 1005.6 1001.6 0.0
01/06:30pm 38.0 35.5 3.7 12 18.6 W 6 7 3 4 1005.3 1001.3 0.0
01/06:08pm 39.1 36.3 3.3 11 19.5 W 7 11 4 6 1005.2 1001.2 0.0
01/06:00pm 39.3 36.5 3.4 11 19.6 WNW 7 11 4 6 1005.1 1001.1 0.0
01/05:49pm 39.3 36.7 3.4 11 19.6 WNW 6 9 3 5 1005.1 1001.1 0.0
01/05:30pm 39.3 36.5 3.4 11 19.6 NW 7 15 4 8 1005.0 1001.0 0.0
01/05:00pm 39.5 36.4 3.6 11 19.7 NNW 9 13 5 7 1004.9 1000.9 0.0
01/04:30pm 39.4 35.9 3.5 11 19.6 NW 11 17 6 9 1005.0 1001.0 0.0
01/04:00pm 40.0 36.7 2.6 10 20.3 WNW 9 17 5 9 1005.1 1001.1 0.0
01/03:30pm 39.6 36.5 3.7 11 19.7 W 9 20 5 11 1005.3 1001.3 0.0
01/03:00pm 39.3 36.2 3.4 11 19.6 WNW 9 19 5 10 1005.7 1001.7 0.0
01/02:30pm 39.3 36.5 3.4 11 19.6 W 7 15 4 8 1006.2 1002.2 0.0
01/02:00pm 39.8 36.4 3.8 11 19.8 WSW 11 20 6 11 1006.8 1002.8 0.0
01/01:30pm 39.0 35.1 3.2 11 19.4 WSW 13 24 7 13 1007.1 1003.1 0.0
01/01:00pm 40.7 37.5 3.1 10 20.6 SSE 9 24 5 13 1007.4 1003.4 0.0
01/12:30pm 39.3 37.1 3.4 11 19.6 W 4 11 2 6 1007.8 1003.8 0.0
01/12:00pm 39.5 36.0 3.6 11 19.7 SSW 11 19 6 10 1008.1 1004.1 0.0
01/11:30am 37.9 34.4 3.6 12 18.6 ESE 11 22 6 12 1008.6 1004.7 0.0
01/11:00am 38.3 35.0 2.7 11 19.1 SE 9 20 5 11 1009.1 1005.1 0.0
01/10:30am 37.7 33.4 3.4 12 18.5 ESE 15 28 8 15 1009.4 1005.4 0.0
01/10:00am 36.8 31.9 3.9 13 17.9 SE 19 28 10 15 1009.9 1005.9 0.0
01/09:30am 36.9 32.3 1.6 11 18.5 SSE 15 26 8 14 1010.1 1006.1 0.0
01/09:00am 34.8 30.7 6.2 17 15.9 S 17 26 9 14 1010.2 1006.2 0.8
01/08:30am 32.2 29.8 11.4 28 12.4 SSW 15 22 8 12 1010.2 1006.2 0.8
01/08:00am 30.8 29.1 13.6 35 10.5 SW 15 20 8 11 1010.2 1006.2 0.8
01/07:30am 28.8 26.8 15.0 43 8.6 SW 19 26 10 14 1009.9 1006.4 0.8
01/07:00am 26.8 26.0 15.2 49 7.2 WSW 13 20 7 11 1010.1 1006.6 0.8
01/06:30am 26.1 25.8 15.5 52 6.6 SW 11 15 6 8 1010.0 1006.5 0.8
01/06:00am 25.2 25.9 15.5 55 6.0 WSW 6 11 3 6 1009.8 1006.3 0.8
01/05:30am 23.9 25.0 14.6 56 5.6 WSW 2 4 1 2 1009.7 1006.2 0.8
01/05:00am 24.5 25.6 14.6 54 6.0 ENE 2 4 1 2 1009.6 1006.1 0.8
01/04:30am 25.5 26.6 14.6 51 6.6 WNW 2 4 1 2 1009.6 1006.1 0.8
01/04:00am 26.1 26.4 14.9 50 6.9 W 7 9 4 5 1009.7 1006.2 0.8
01/03:30am 26.5 27.7 14.9 49 7.1 ENE 2 6 1 3 1009.7 1006.2 0.8
01/03:00am 28.0 28.5 15.0 45 8.1 NNW 6 9 3 5 1009.7 1006.2 0.8
01/02:30am 28.6 28.2 15.2 44 8.3 NW 11 17 6 9 1009.9 1006.4 0.8
01/02:00am 28.9 29.9 15.4 44 8.4 NNE 4 9 2 5 1010.3 1006.8 0.8
01/01:30am 29.4 29.2 14.8 41 9.1 N 9 17 5 9 1009.9 1006.4 0.8
01/01:00am 29.9 29.0 14.8 39 9.4 NW 13 24 7 13 1010.2 1006.7 0.8
01/12:30am 30.1 27.6 14.2 38 9.8 NNW 20 30 11 16 1008.9 1005.4 0.8
01/12:00am 30.0 27.4 13.7 37 10.0 NNW 20 30 11 16 1008.9 1005.4 0.8
 
Date/Time
WST
Temp
°C
App
Temp
°C
Dew
Point
°C
Rel
Hum
%
Delta-T
°C
Wind Press
QNH
hPa
Press
MSL
hPa
Rain since
9am
mm
Dir  Spd
km/h
Gust
km/h
Spd
kts
Gust
kts
30/11:30pm 29.6 27.3 14.2 39 9.5 NNW 19 28 10 15 1009.4 1005.9 0.8
30/11:00pm 29.6 26.5 14.6 40 9.3 NNW 24 32 13 17 1009.2 1005.6 0.8
30/10:30pm 29.3 27.7 15.1 42 8.8 NW 17 22 9 12 1009.6 1006.1 0.8
30/10:00pm 29.1 28.8 14.5 41 9.0 N 9 15 5 8 1010.0 1006.5 0.8
30/09:30pm 28.9 27.4 15.4 44 8.4 NNE 17 26 9 14 1009.4 1005.9 0.8
30/09:00pm 29.3 26.7 15.8 44 8.5 NE 24 35 13 19 1009.7 1006.2 0.8
30/08:30pm 30.3 28.6 14.8 39 9.6 N 17 22 9 12 1009.7 1006.2 0.8
30/08:00pm 30.8 29.0 14.4 36 10.2 NE 17 26 9 14 1009.2 1005.6 0.8

Other Formats:

Comma delimited format used in spreadsheet applications
http://www.bom.gov.au/fwo/IDW60801/IDW60801.99736.axf

JavaScript Object Notation format (JSON) in row-major order
http://www.bom.gov.au/fwo/IDW60801/IDW60801.99736.json